Scroll down
FLIGHT INFORMATION
Air Canada

ACA801

At Arrival Gate

CYMX
 PHNL
DATE: 2019-08-01
GATE:  -
GATE DEPARTURE: 08:50
TAKEOFF: 09:11
DATE: 2019-08-01
GATE: 98
LANDING: 19:01
GATE ARRIVAL: 19:07
FLIGHT DATA
Crew: 
Speed: 
501 kts
Altitude: 
38,067 ft
Stage Length: 
4,248.7 nm
Block Time: 
10.3 hrs
Flight Time: 
9.8 hrs
Fuel Used: 
206,171 lb
Cleared Route: CYMX IPSAK TAKOL YOW LETAK YXI SSM DLH FAR DIK LWT HLN IMB DSD CHEEZ OLINE BOXER N4100.0W13000.0 N3600.0W14000.0 N2900.0W15000.0 BITTA PHNL
TRACK DATA
50,000 ft 1,000 kts
AIRCRAFT INFO AND CUMULATIVE STATS
Aircraft Type: 
B748
Registration: 
SELCAL: 
MSN/LN: 
0 / 2
Operator: 
Total Flights: 
13
Total Block Time: 
88.8 hrs
Total Flight Time: 
85.4 hrs
Total Fuel Time: 
1,828,758 lb
DATALINK LOG | Newest first | Current as of: 2020-12-03 01:36:44
LABEL SEQUENCE CONTENT Dn/Up
QD084219:07 45.2▼ Dn
QC025219:01▼ Dn
2U1443PHNL 011053Z 06008KT 10SM FEW020 FEW050 27/20 A2998 RMK AO2 SLP150 T02720200▲ Up
2S3523PHNL▼ Dn
GA1038YOUR ASSIGNMENT IS STILL GATE 98▲ Up
GR3210PHNL 18:59 MAAS 00 YP/UM 10/02 WCHR/S/C 00/00/00 HI-VAL NO DIPL/VIP NO▼ Dn
2U5535PHNL 011053Z 06008KT 10SM FEW020 FEW050 27/20 A2998 RMK AO2 SLP150 T02720200▲ Up
2S1812PHNL▼ Dn
5R0606N3600.0W14000.0 15:54z FL380 N2900.0W15000.0 17:24z BITTA M0.84 45.3 -25 / RW08L 19:03z▼ Dn
GA4138GATE 98▲ Up
GR3057PHNL 19:11 HI-VAL NO DIPL/VIP NO▼ Dn
2U4136PHNL 010853Z 06009G16KT 10SM FEW018 FEW038 28/20 A2999 RMK AO2 SLP156 VCSH NE-E T02780200 51008▲ Up
2S0604PHNL▼ Dn
5U3147PHNL 010831Z 0109/0212 07010G17KT P6SM FEW020 SCT040 FM011900 05018G27KT P6SM FEW025 SCT045 SCT250 FM020500 05011G17KT P6SM VCSH FEW025 BKN045 BKN200▲ Up
5S2925PHNL▼ Dn
QB112509:11▼ Dn
QA513108:50 251.3▼ Dn
2U4258CYMX 010800Z 00000KT 25SM SKC 11/11 A3008 RMK SLP190▲ Up
2S4105CYMX▼ Dn
2U3248CYMX 010800Z 00000KT 25SM SKC 11/11 A3008 RMK SLP190▲ Up
2S3101CYMX▼ Dn
2U1532CYMX 010800Z 00000KT 25SM SKC 11/11 A3008 RMK SLP190▲ Up
2S1351CYMX▼ Dn
2U0522DATA SERVICE NOT RESPONDING▲ Up
2S0320CYMX▼ Dn
A30350CLEARED TO PHNL VIA CYMX PHNL ACA801 C-GQMD . SQUAWK 5565.▲ Up
2U0337DATA SERVICE NOT RESPONDING▲ Up
2S0219CYMX▼ Dn
Q00206[LINK ACK]▲ Up
Q00143[LINK TEST]▼ Dn


AIRCRAFT HISTORY
FLIGHT DATE FLIGHT NO. ORIGIN DESTINATION CLEARED ROUTE BLOCK TIME FLIGHT TIME FUEL USED PILOT
2020-11-23ACA1123CYVR RKSI CYVR YVR DUPOD SULRY POWOL YZP FRIED EEDEN SNOUT MDO WUXAN NONDA OSE NEONN PALIN KIVAK MARCC BESAT BALUB MURTA UK GAKTA SUMON OBETA SW NAKUR OSMIN NAMUL UMOLA OBENA REDNA DOLET PAKLI GUBIS ANIMO AWE ASIBE CHE ESANN ESASI TONIN KANSU ONATA SELPA KARBU EGOBA SEL SI853 SI941 SI942 SI943 SI944 SI945 SI946 SI947 DANAN ENPIL RW3411.8 hrs11.7 hrs277,401 lbRandall Smith
2020-11-15ACA721EIDW CYVR EIDW DE28L DUB DW028 DW104 SUROX ERNAN TADEX MIMKU 6120N 6430N 6534N SABAG DA MASIK PEVAR GANGI SF KEMOS HB 6755N 6770N 6680N YMM YZU BOJAM YNY SUVAK STUMM BULIE ICOLA MERYT SPUZZ BOOTH VITEV STAVE GOPAD MOGUS OBTOT GOREG RW26R9 hrs8.7 hrs185,751 lbTom Landry
2020-03-29ACA329UUWW EIDW UUWW D016C D317C WNK BITSA BG MITMU OLMET AMDOR WKL REPMU OPOKA BETAL BARVA RIA VALED LEP LUKED VEDEN IBREK MADAG EVAKI AMRAM GOLUM LESRA INPUT ROPAL ODMOS ROVNI LIBSO GOLES ARPUB UPTON UNIGO DESIG KOLID TADAL GUNTU PENIL BABRA GIGTO UNDUX SOPAX RAMOX OGTUG BAGSO ADSIS KERAV LAPMO RW283.6 hrs3.5 hrs69,902 lbRandall Smith
2020-03-29ACA329KLAX UUWW KLAX DOCKR WEILR SHAEF PEVEE HOLTZ OSHNN CAHIL ZOOMM SEBBY PLAYY NNAVY BLAZN LAS SUVIE NORRA TCH BIL GGW VLN YQD YTH YYQ YZS 6578N 6770N 6860N 6950N 7040N 7120N 7010N 6800E GISOX NEBUR LAMPI RATLA VEKIL PETAP SPB LUKIR KANET MANIV BERNO DB RUNEP RISOP NAMIN MFNB ITINA RWNB GEKLA BITSA WNK D174F OSTIS CI19 RW1910.9 hrs10.8 hrs236,619 lbRandall Smith
2019-08-20ACA820CYVR KLAX CYVR SEA TAOMA SUMMA 4230N12050W FRA REBRG KLAX2.5 hrs2.2 hrs45,231 lbDouglas Morlan
2019-08-19ACA819PHNL CYVR PHNL APACK AUNTI HALLI 34N45 ZAGER 42N35 SHARI PEKAA CYVR5.5 hrs5 hrs105,026 lbDouglas Morlan
2019-08-01ACA801CYMX PHNL CYMX IPSAK TAKOL YOW LETAK YXI SSM DLH FAR DIK LWT HLN IMB DSD CHEEZ OLINE BOXER N4100.0W13000.0 N3600.0W14000.0 N2900.0W15000.0 BITTA PHNL10.3 hrs9.8 hrs206,171 lbBig Swede
2019-01-03ACA1234CYYZ CYMX MIGLO REEDO IGVUD EPMOK ARVIE HABBS COMAU VEVKU1.2 hrs0.9 hrs31,548 lb-HIDDEN-
2018-12-30ACA1235ESSA CYYZ KOGAV BOR GEVRU SUVAR NIMVO UMBOR BURIX APTEK RATSU 6120N 6130N 6040N 5850N DORYY BORUB YZV YBC ML DICEN LIVBA VIDGO KISUK LETAK DESKI ILEMU IMEBA8.7 hrs8.4 hrs187,387 lbBig Swede
2018-12-29ACA1234CYUL ESSA AGLUK VBS UAC UM HO CUDDY 5950N 6140N 6330N 6420N 6410N ISVIG UVTIL KEMIV SUVAR ELTOK7 hrs6.7 hrs131,734 lbBig Swede
2018-12-26ACA885EKCH CYUL RUBAT CH384 SORGA MIKSI ASLID AAL KOVIK ORVIK SUM BESGA RATSU 6220N 6230N 6140N 5950N CUDDY HONB UMNB UACNB YBC MLNB DICEN MATOR TAMKO ESTEL EMPEK SATOT PIGNA NOPOS AGNAG TIDAS MAXOD OVUVI7.2 hrs6.9 hrs155,755 lbTom Landry
2018-08-31ACA916CYYZ EKCH 7.2 hrs6.6 hrs128,338 lbBig Swede
2018-08-22ACA1176KPAE CYYZ 4.4 hrs4 hrs67,895 lbBig Swede